Time;durP1;ratioP1;P1;durP2;ratioP2;P2;SDS_P1;SDS_P2;PMS_P1;PMS_P2;Temp;Humidity;BMP_temperature;BMP_pressure;BME280_temperature;BME280_humidity;BME280_pressure;Samples;Min_cycle;Max_cycle;Signal;HPM_P1;HPM_P2
2023/06/21 00:01:38;;;;;;;0.70;0.70;;;;;;;17.01;95.35;97153.06;4928817;29;20146;-59
2023/06/21 00:04:06;;;;;;;0.80;0.80;;;;;;;16.98;95.47;97146.28;4928559;29;20066;-59
2023/06/21 00:06:34;;;;;;;0.70;0.70;;;;;;;16.87;95.62;97155.94;4928616;29;20052;-60
2023/06/21 00:09:05;;;;;;;0.70;0.70;;;;;;;16.74;96.16;97147.22;4928512;29;20075;-60
2023/06/21 00:11:33;;;;;;;0.70;0.70;;;;;;;16.73;97.16;97156.00;4953425;28;20062;-60
2023/06/21 00:14:01;;;;;;;0.70;0.70;;;;;;;16.32;97.42;97092.28;4946871;28;20106;-60
2023/06/21 00:16:28;;;;;;;0.80;0.80;;;;;;;16.63;98.26;97140.09;4961842;28;20082;-62
2023/06/21 00:18:55;;;;;;;0.70;0.70;;;;;;;16.69;99.46;97153.25;4947145;28;20078;-60
2023/06/21 00:21:21;;;;;;;0.70;0.70;;;;;;;16.79;98.97;97151.63;4946900;29;20047;-61
2023/06/21 00:23:48;;;;;;;0.70;0.70;;;;;;;16.85;98.69;97147.19;4961563;28;20054;-60
2023/06/21 00:26:15;;;;;;;0.70;0.70;;;;;;;16.82;99.08;97136.81;4945531;29;20079;-60
2023/06/21 00:28:41;;;;;;;0.70;0.70;;;;;;;16.46;99.34;97097.84;4977509;28;20047;-60
2023/06/21 00:31:10;;;;;;;0.77;0.77;;;;;;;16.71;99.03;97136.06;4946939;28;20051;-60
2023/06/21 00:33:38;;;;;;;0.70;0.70;;;;;;;16.75;99.11;97143.22;4946425;28;20066;-60
2023/06/21 00:36:05;;;;;;;0.70;0.70;;;;;;;16.30;97.88;97075.13;4944615;28;20051;-60
2023/06/21 00:38:34;;;;;;;0.70;0.70;;;;;;;16.76;97.23;97158.81;4946676;28;20055;-60
2023/06/21 00:41:05;;;;;;;0.70;0.70;;;;;;;16.65;97.56;97144.06;4946883;28;20483;-60
2023/06/21 00:43:32;;;;;;;0.80;0.80;;;;;;;16.67;97.57;97141.69;4946621;28;20068;-59
2023/06/21 00:45:59;;;;;;;0.70;0.70;;;;;;;16.61;98.91;97124.50;4946347;29;20043;-59
2023/06/21 00:48:29;;;;;;;0.60;0.60;;;;;;;16.62;98.92;97147.69;4946217;28;20472;-59
2023/06/21 00:50:57;;;;;;;0.70;0.70;;;;;;;16.12;98.20;97077.19;4946719;28;20055;-60
2023/06/21 00:53:29;;;;;;;0.70;0.70;;;;;;;16.31;97.27;97109.47;4946469;28;20262;-60
2023/06/21 00:55:56;;;;;;;0.70;0.70;;;;;;;16.40;98.54;97148.97;4946624;28;20530;-59
2023/06/21 00:58:23;;;;;;;0.68;0.68;;;;;;;16.46;99.48;97145.38;4946677;28;20051;-60
2023/06/21 01:00:50;;;;;;;0.70;0.70;;;;;;;16.51;98.35;97147.75;4946231;28;20062;-59
2023/06/21 01:03:20;;;;;;;0.80;0.80;;;;;;;16.48;98.16;97137.38;4946337;28;20055;-60
2023/06/21 01:05:55;;;;;;;0.70;0.70;;;;;;;16.23;99.75;97128.25;4945982;29;20062;-62
2023/06/21 01:08:45;;;;;;;0.70;0.70;;;;;;;16.36;100.00;97143.38;4946579;28;20082;-60
2023/06/21 01:11:26;;;;;;;0.80;0.80;;;;;;;16.22;99.94;97125.84;4960515;28;20055;-60
2023/06/21 01:14:27;;;;;;;0.70;0.70;;;;;;;16.32;99.06;97137.00;4945861;29;20054;-60
2023/06/21 01:16:55;;;;;;;0.60;0.60;;;;;;;16.17;99.09;97124.28;4946267;28;20067;-60
2023/06/21 01:19:28;;;;;;;0.70;0.70;;;;;;;16.22;98.50;97135.03;4946272;29;20052;-60
2023/06/21 01:21:57;;;;;;;0.70;0.70;;;;;;;16.21;99.00;97136.25;4946099;29;20126;-60
2023/06/21 01:24:55;;;;;;;0.60;0.60;;;;;;;16.19;99.03;97132.25;4976554;28;20542;-61
2023/06/21 01:27:27;;;;;;;0.70;0.70;;;;;;;16.08;100.00;97126.72;4945640;29;20138;-59
2023/06/21 01:29:59;;;;;;;0.70;0.70;;;;;;;16.08;100.00;97137.09;4976445;28;20050;-60
2023/06/21 01:32:29;;;;;;;0.70;0.70;;;;;;;16.01;99.81;97123.94;4945786;28;20063;-60
2023/06/21 01:34:56;;;;;;;0.70;0.70;;;;;;;16.04;99.99;97137.13;4945707;28;20533;-59
2023/06/21 01:37:23;;;;;;;0.70;0.70;;;;;;;16.04;100.00;97142.69;4946203;28;20067;-60
2023/06/21 01:39:50;;;;;;;0.65;0.65;;;;;;;16.06;100.00;97145.09;4945679;29;20050;-59
2023/06/21 01:42:19;;;;;;;0.70;0.70;;;;;;;16.06;99.95;97145.88;4945836;28;20047;-60
2023/06/21 01:44:46;;;;;;;0.70;0.70;;;;;;;16.12;98.71;97143.47;4946064;29;21048;-59
2023/06/21 01:47:14;;;;;;;0.60;0.60;;;;;;;16.15;98.11;97148.25;4944880;29;20062;-63
2023/06/21 01:49:41;;;;;;;0.70;0.70;;;;;;;16.04;99.60;97131.53;4945155;29;20589;-60
2023/06/21 01:52:09;;;;;;;0.70;0.70;;;;;;;16.06;100.00;97123.50;4945962;28;20055;-59
2023/06/21 01:54:40;;;;;;;0.68;0.68;;;;;;;16.19;99.64;97138.66;4959884;28;20446;-59
2023/06/21 01:57:08;;;;;;;0.68;0.68;;;;;;;16.15;98.38;97132.28;4945721;28;20325;-60
2023/06/21 01:59:36;;;;;;;0.63;0.63;;;;;;;15.80;97.07;97093.28;4945379;29;20066;-60
2023/06/21 02:02:05;;;;;;;0.70;0.70;;;;;;;16.13;97.34;97143.06;4945884;29;20594;-59
2023/06/21 02:04:33;;;;;;;0.70;0.70;;;;;;;16.09;97.71;97147.06;4960047;28;20061;-60
2023/06/21 02:07:02;;;;;;;0.70;0.70;;;;;;;15.68;97.55;97068.53;4945983;29;20071;-60
2023/06/21 02:09:31;;;;;;;0.70;0.70;;;;;;;16.13;99.13;97145.06;4945496;29;20502;-59
2023/06/21 02:12:00;;;;;;;0.70;0.70;;;;;;;16.16;100.00;97149.84;4976252;28;20051;-59
2023/06/21 02:14:27;;;;;;;0.70;0.70;;;;;;;16.22;99.13;97149.03;4945601;28;20061;-60
2023/06/21 02:16:54;;;;;;;0.70;0.70;;;;;;;16.16;98.30;97145.06;4945780;28;20537;-59
2023/06/21 02:19:22;;;;;;;0.70;0.70;;;;;;;14.39;98.15;96891.78;4959905;28;20512;-59
2023/06/21 02:21:49;;;;;;;0.70;0.70;;;;;;;16.01;99.03;97148.28;4960333;28;20070;-59
2023/06/21 02:24:17;;;;;;;0.60;0.60;;;;;;;16.01;99.18;97146.28;4932061;28;20059;-60
2023/06/21 02:26:44;;;;;;;0.70;0.70;;;;;;;15.96;99.84;97143.91;4959473;28;20047;-59
2023/06/21 02:29:10;;;;;;;0.60;0.60;;;;;;;15.93;100.00;97153.09;4945437;28;20490;-59
2023/06/21 02:31:37;;;;;;;0.70;0.70;;;;;;;15.84;100.00;97138.75;4945361;28;20149;-61
2023/06/21 02:34:04;;;;;;;0.70;0.70;;;;;;;15.08;100.00;97045.47;4945214;28;20060;-60
2023/06/21 02:36:31;;;;;;;0.70;0.70;;;;;;;15.83;99.40;97147.53;4944964;28;20059;-60
2023/06/21 02:38:57;;;;;;;0.70;0.70;;;;;;;15.76;100.00;97153.91;4944170;29;20055;-61
2023/06/21 02:41:24;;;;;;;0.60;0.60;;;;;;;15.80;100.00;97170.69;4945127;28;20051;-60
2023/06/21 02:43:51;;;;;;;0.60;0.60;;;;;;;15.86;100.00;97161.50;4959711;28;20055;-61
2023/06/21 02:46:19;;;;;;;0.70;0.70;;;;;;;15.80;100.00;97174.28;4959453;28;20063;-60
2023/06/21 02:48:45;;;;;;;0.60;0.60;;;;;;;14.75;99.47;97009.63;4945469;28;20138;-60
2023/06/21 02:51:12;;;;;;;0.60;0.60;;;;;;;15.53;100.00;97131.22;4944550;28;20055;-61
2023/06/21 02:53:39;;;;;;;0.63;0.63;;;;;;;15.87;98.18;97165.88;4945475;28;20062;-60
2023/06/21 02:56:05;;;;;;;0.70;0.70;;;;;;;15.82;98.43;97171.09;4944984;28;20430;-61
2023/06/21 02:58:33;;;;;;;0.70;0.70;;;;;;;15.82;99.30;97174.66;4946612;28;20066;-60
2023/06/21 03:00:59;;;;;;;0.70;0.70;;;;;;;15.99;97.38;97173.03;4962713;28;20223;-61
2023/06/21 03:03:26;;;;;;;0.70;0.70;;;;;;;15.65;97.74;97125.22;4963159;28;20065;-59
2023/06/21 03:05:54;;;;;;;0.60;0.60;;;;;;;15.91;97.36;97168.66;4948033;28;20442;-60
2023/06/21 03:08:21;;;;;;;0.60;0.60;;;;;;;15.97;97.29;97169.84;4414815;28;5002412;-60
2023/06/21 03:10:48;;;;;;;0.60;0.60;;;;;;;15.95;97.04;97163.88;4916878;28;20083;-60
2023/06/21 03:13:14;;;;;;;0.60;0.60;;;;;;;15.98;96.14;97172.22;4963264;28;20089;-60
2023/06/21 03:15:41;;;;;;;0.70;0.70;;;;;;;15.97;95.95;97170.66;4962699;28;20098;-60
2023/06/21 03:18:08;;;;;;;0.70;0.70;;;;;;;16.08;95.14;97171.44;4948353;28;20530;-60
2023/06/21 03:20:34;;;;;;;0.70;0.70;;;;;;;15.77;95.84;97116.44;4946589;29;20047;-61
2023/06/21 03:23:01;;;;;;;0.70;0.70;;;;;;;16.21;96.25;97186.56;4944125;28;20059;-60
2023/06/21 03:25:28;;;;;;;0.70;0.70;;;;;;;16.13;95.46;97185.00;4929029;29;20139;-61
2023/06/21 03:27:59;;;;;;;0.70;0.70;;;;;;;15.94;95.64;97137.13;4959531;28;20071;-62
2023/06/21 03:30:26;;;;;;;0.70;0.70;;;;;;;16.32;95.95;97192.94;4928752;29;20518;-60
2023/06/21 03:32:53;;;;;;;0.60;0.60;;;;;;;16.38;96.55;97185.72;4928910;29;20986;-60
2023/06/21 03:35:20;;;;;;;0.70;0.70;;;;;;;16.50;95.51;97199.28;4928808;29;20119;-60
2023/06/21 03:37:47;;;;;;;0.70;0.70;;;;;;;16.41;95.28;97161.72;4959397;28;20114;-61
2023/06/21 03:40:14;;;;;;;0.70;0.70;;;;;;;16.52;94.73;97152.13;4929147;29;20258;-61
2023/06/21 03:42:42;;;;;;;0.70;0.70;;;;;;;16.46;93.40;97114.63;4928583;29;20099;-61
2023/06/21 03:45:10;;;;;;;0.80;0.80;;;;;;;17.03;91.93;97192.63;4928587;29;20062;-60
2023/06/21 03:47:42;;;;;;;0.73;0.73;;;;;;;16.76;90.95;97121.63;4928565;29;20068;-60
2023/06/21 03:50:09;;;;;;;0.70;0.70;;;;;;;17.22;91.66;97183.72;4928453;29;20058;-59
2023/06/21 03:52:36;;;;;;;0.80;0.80;;;;;;;17.07;92.20;97185.03;4928250;29;20066;-60
2023/06/21 03:55:04;;;;;;;0.80;0.80;;;;;;;17.02;92.38;97163.06;4928607;29;20527;-60
2023/06/21 03:57:31;;;;;;;0.77;0.77;;;;;;;17.32;92.13;97188.44;4928025;29;20052;-59
2023/06/21 03:59:58;;;;;;;0.80;0.80;;;;;;;17.46;89.96;97182.78;4928292;29;20052;-60
2023/06/21 04:02:25;;;;;;;0.80;0.80;;;;;;;17.63;89.21;97185.44;4927821;29;20051;-60
2023/06/21 04:04:51;;;;;;;0.80;0.80;;;;;;;17.72;88.46;97185.75;4927717;29;20056;-59
2023/06/21 04:07:19;;;;;;;0.75;0.75;;;;;;;17.68;89.14;97185.00;4927854;29;20052;-61
2023/06/21 04:09:48;;;;;;;0.80;0.80;;;;;;;17.69;89.39;97163.34;4928156;29;20478;-60
2023/06/21 04:12:15;;;;;;;0.75;0.75;;;;;;;17.93;88.62;97191.16;4955917;28;20055;-61
2023/06/21 04:14:41;;;;;;;0.70;0.70;;;;;;;17.96;88.05;97184.72;4946983;28;20051;-61
2023/06/21 04:17:08;;;;;;;0.80;0.80;;;;;;;18.21;87.33;97181.66;4945614;29;20062;-60
2023/06/21 04:19:35;;;;;;;0.80;0.80;;;;;;;18.31;87.24;97177.97;4947203;28;20372;-60
2023/06/21 04:22:02;;;;;;;0.80;0.80;;;;;;;18.39;87.62;97173.91;4946919;28;20110;-61
2023/06/21 04:24:29;;;;;;;0.82;0.82;;;;;;;18.24;85.55;97099.50;4946859;28;20660;-60
2023/06/21 04:26:58;;;;;;;0.80;0.80;;;;;;;18.90;84.01;97168.03;4946854;28;20051;-60
2023/06/21 04:29:27;;;;;;;0.80;0.80;;;;;;;18.75;83.20;97130.13;4947359;28;20055;-60
2023/06/21 04:31:55;;;;;;;0.80;0.80;;;;;;;19.15;82.39;97176.09;4945441;29;20061;-61
2023/06/21 04:34:22;;;;;;;0.85;0.85;;;;;;;18.79;82.83;97136.53;4946520;28;20510;-61
2023/06/21 04:36:49;;;;;;;0.80;0.80;;;;;;;19.14;83.38;97180.91;4960926;28;20143;-60
2023/06/21 04:39:16;;;;;;;0.90;0.90;;;;;;;19.28;82.69;97166.69;4961275;28;20534;-61
2023/06/21 04:41:47;;;;;;;0.85;0.85;;;;;;;19.36;80.91;97148.50;4946738;28;20091;-61
2023/06/21 04:44:16;;;;;;;0.90;0.90;;;;;;;19.65;80.36;97176.19;4944806;29;20061;-60
2023/06/21 04:46:47;;;;;;;0.80;0.80;;;;;;;19.82;80.12;97180.72;4946636;28;20094;-61
2023/06/21 04:49:15;;;;;;;0.85;0.85;;;;;;;19.53;79.67;97127.78;4945991;28;20118;-61
2023/06/21 04:51:43;;;;;;;0.88;0.88;;;;;;;19.91;79.03;97172.50;4946581;28;20137;-61
2023/06/21 04:54:10;;;;;;;0.90;0.90;;;;;;;20.23;79.72;97181.97;4946402;28;20102;-61
2023/06/21 04:56:36;;;;;;;0.90;0.90;;;;;;;20.32;79.22;97175.81;4946606;28;20053;-62
2023/06/21 04:59:03;;;;;;;0.80;0.80;;;;;;;20.49;77.65;97180.28;4945946;28;20059;-59
2023/06/21 05:01:31;;;;;;;0.90;0.90;;;;;;;20.40;79.68;97180.06;4946320;28;20074;-60
2023/06/21 05:03:57;;;;;;;0.90;0.90;;;;;;;20.66;78.32;97179.94;4945911;28;20062;-59
2023/06/21 05:06:25;;;;;;;0.90;0.90;;;;;;;20.63;77.48;97151.84;4946331;28;20051;-60
2023/06/21 05:08:53;;;;;;;0.90;0.90;;;;;;;21.04;76.35;97183.19;4944428;29;20137;-61
2023/06/21 05:11:20;;;;;;;0.90;0.90;;;;;;;21.11;76.86;97180.22;4944888;29;20051;-59
2023/06/21 05:13:47;;;;;;;0.90;0.90;;;;;;;21.35;76.55;97170.41;4946256;28;20082;-59
2023/06/21 05:16:13;;;;;;;1.00;1.00;;;;;;;21.53;75.56;97170.78;4945972;28;20062;-59
2023/06/21 05:18:40;;;;;;;1.00;1.00;;;;;;;21.75;74.88;97183.16;4945920;28;20061;-61
2023/06/21 05:21:07;;;;;;;0.90;0.90;;;;;;;21.77;74.46;97172.22;4945179;28;20058;-59
2023/06/21 05:23:34;;;;;;;1.00;1.00;;;;;;;21.94;74.16;97185.09;4945841;28;20121;-60
2023/06/21 05:26:01;;;;;;;0.90;0.90;;;;;;;21.82;74.33;97137.88;4945842;28;20063;-60
2023/06/21 05:28:31;;;;;;;0.88;0.88;;;;;;;22.12;73.40;97179.81;4945706;28;20062;-61
2023/06/21 05:30:57;;;;;;;1.00;1.00;;;;;;;22.26;72.95;97185.06;4942816;28;20493;-63
2023/06/21 05:33:24;;;;;;;0.90;0.90;;;;;;;22.14;72.16;97153.97;4949565;28;20133;-64
2023/06/21 05:35:51;;;;;;;0.90;0.90;;;;;;;22.28;72.39;97162.03;4947519;28;20051;-63
2023/06/21 05:38:17;;;;;;;1.08;1.08;;;;;;;21.94;74.04;97089.19;4956840;28;20061;-61
2023/06/21 05:40:44;;;;;;;0.90;0.90;;;;;;;22.81;74.46;97174.72;4964636;28;20058;-66
2023/06/21 05:43:11;;;;;;;0.98;0.98;;;;;;;22.41;75.15;97101.56;4959288;28;20075;-63
2023/06/21 05:45:40;;;;;;;1.10;1.10;;;;;;;23.03;73.98;97196.22;4956024;28;20144;-64
2023/06/21 05:48:06;;;;;;;1.00;1.00;;;;;;;23.34;73.24;97173.91;4974698;28;20434;-65
2023/06/21 05:50:33;;;;;;;1.00;1.00;;;;;;;23.52;72.67;97185.47;4964599;28;20047;-62
2023/06/21 05:53:00;;;;;;;1.00;1.00;;;;;;;23.41;71.62;97128.47;4959016;28;20060;-62
2023/06/21 05:55:26;;;;;;;1.00;1.00;;;;;;;23.60;70.63;97181.19;4950481;28;20510;-61
2023/06/21 05:57:53;;;;;;;1.20;1.20;;;;;;;23.82;69.58;97182.84;4963426;28;20109;-64
2023/06/21 06:00:20;;;;;;;1.10;1.10;;;;;;;24.04;67.42;97182.97;4958990;28;20053;-61
2023/06/21 06:02:47;;;;;;;1.00;1.00;;;;;;;24.12;66.59;97172.19;4964731;28;20066;-63
2023/06/21 06:05:14;;;;;;;1.02;1.02;;;;;;;24.31;66.47;97174.72;4963363;28;20089;-60
2023/06/21 06:07:41;;;;;;;1.15;1.15;;;;;;;24.46;66.87;97153.16;4964382;28;20054;-65
2023/06/21 06:10:08;;;;;;;1.20;1.20;;;;;;;24.61;66.53;97153.47;4941671;28;20186;-62
2023/06/21 06:12:35;;;;;;;1.13;1.13;;;;;;;24.90;64.52;97165.34;4962647;28;20434;-60
2023/06/21 06:15:02;;;;;;;1.13;1.13;;;;;;;24.81;64.09;97129.25;4958968;28;20359;-63
2023/06/21 06:17:30;;;;;;;1.40;1.40;;;;;;;24.94;62.97;97127.09;4964381;28;20057;-67
2023/06/21 06:19:56;;;;;;;1.20;1.20;;;;;;;25.09;64.04;97145.16;4961309;28;20059;-62
2023/06/21 06:22:24;;;;;;;1.27;1.27;;;;;;;25.31;67.68;97157.25;4963845;28;20050;-63
2023/06/21 06:24:50;;;;;;;1.10;1.10;;;;;;;25.40;68.20;97164.25;4976460;28;20093;-60
2023/06/21 06:27:17;;;;;;;1.20;1.20;;;;;;;25.14;67.76;97092.72;4953286;28;20051;-65
2023/06/21 06:29:44;;;;;;;1.30;1.30;;;;;;;25.46;66.59;97091.47;4944469;28;20055;-62
2023/06/21 06:32:10;;;;;;;1.10;1.10;;;;;;;26.19;65.08;97161.41;4953281;28;20047;-61
2023/06/21 06:34:37;;;;;;;1.20;1.20;;;;;;;26.07;65.00;97122.56;4949989;28;20324;-63
2023/06/21 06:37:04;;;;;;;1.25;1.25;;;;;;;26.38;64.95;97131.75;4966418;28;20141;-62
2023/06/21 06:39:39;;;;;;;1.52;1.52;;;;;;;26.37;64.54;97115.97;4948537;28;20141;-63
2023/06/21 06:42:06;;;;;;;1.30;1.30;;;;;;;26.48;63.29;97158.91;4979699;28;20318;-71
2023/06/21 06:44:33;;;;;;;1.50;1.50;;;;;;;26.29;62.90;97103.31;4965733;28;20061;-64
2023/06/21 06:47:00;;;;;;;1.40;1.40;;;;;;;26.64;61.96;97147.25;4976074;28;20078;-67
2023/06/21 06:49:27;;;;;;;1.40;1.40;;;;;;;26.34;62.23;97091.34;4956580;28;20053;-60
2023/06/21 06:51:54;;;;;;;1.58;1.58;;;;;;;26.86;61.09;97149.94;4958556;28;20517;-65
2023/06/21 06:54:20;;;;;;;1.55;1.55;;;;;;;26.98;58.46;97151.81;4961185;28;20517;-64
2023/06/21 06:56:47;;;;;;;1.50;1.50;;;;;;;26.53;58.05;97087.22;4952768;28;20160;-64
2023/06/21 06:59:14;;;;;;;1.60;1.60;;;;;;;27.15;55.56;97151.00;4947965;28;20059;-61
2023/06/21 07:01:41;;;;;;;1.40;1.40;;;;;;;27.19;56.58;97140.22;4964616;28;20086;-61
2023/06/21 07:04:07;;;;;;;1.52;1.52;;;;;;;27.05;56.63;97089.69;4967434;28;20173;-61
2023/06/21 07:06:34;;;;;;;1.60;1.60;;;;;;;26.94;56.17;97037.41;4965888;28;20052;-62
2023/06/21 07:09:02;;;;;;;1.58;1.58;;;;;;;26.37;55.50;96898.00;4997479;28;20565;-63
2023/06/21 07:11:29;;;;;;;1.60;1.60;;;;;;;28.14;54.26;97136.38;4958107;28;20050;-63
2023/06/21 07:13:56;;;;;;;1.70;1.70;;;;;;;27.81;50.64;97064.41;4964252;28;20214;-64
2023/06/21 07:16:22;;;;;;;1.58;1.58;;;;;;;28.36;48.22;97124.66;4962563;28;20050;-69
2023/06/21 07:18:49;;;;;;;1.60;1.60;;;;;;;28.05;50.81;97082.31;4963214;28;20137;-61
2023/06/21 07:21:17;;;;;;;1.33;1.33;;;;;;;28.53;50.54;97127.91;4960331;28;20070;-63
2023/06/21 07:23:48;;;;;;;1.70;1.70;;;;;;;28.63;50.17;97109.44;4965691;28;20065;-62
2023/06/21 07:26:15;;;;;;;1.58;1.58;;;;;;;28.92;48.47;97126.59;4964064;28;20088;-62
2023/06/21 07:28:42;;;;;;;1.73;1.73;;;;;;;28.70;47.52;97086.25;4957462;28;20050;-63
2023/06/21 07:31:09;;;;;;;1.58;1.58;;;;;;;29.13;46.63;97119.75;4959675;28;20301;-63
2023/06/21 07:33:36;;;;;;;1.33;1.33;;;;;;;28.85;43.81;97052.81;4958987;28;20481;-67
2023/06/21 07:36:03;;;;;;;1.60;1.60;;;;;;;28.42;42.95;96985.13;4947481;28;20132;-65
2023/06/21 07:38:30;;;;;;;1.60;1.60;;;;;;;29.36;42.33;97116.00;4952521;28;20055;-65
2023/06/21 07:40:57;;;;;;;1.65;1.65;;;;;;;29.27;40.51;97114.03;4958518;28;20051;-64
2023/06/21 07:43:24;;;;;;;1.60;1.60;;;;;;;27.85;41.18;97038.59;4966624;28;20123;-63
2023/06/21 07:45:50;;;;;;;1.70;1.70;;;;;;;27.66;42.59;97037.91;4959886;28;20432;-67
2023/06/21 07:48:38;;;;;;;1.40;1.40;;;;;;;28.21;43.71;97029.00;4965276;28;20133;-64
2023/06/21 07:51:04;;;;;;;1.58;1.58;;;;;;;29.10;41.16;97104.38;4962658;28;20058;-61
2023/06/21 07:53:32;;;;;;;1.65;1.65;;;;;;;29.19;41.81;97106.38;4965690;28;20051;-66
2023/06/21 07:56:00;;;;;;;1.73;1.73;;;;;;;29.31;43.00;97105.25;4977989;28;20048;-61
2023/06/21 07:58:26;;;;;;;1.67;1.67;;;;;;;29.20;40.96;97057.34;4956070;28;20043;-70
2023/06/21 08:00:53;;;;;;;1.77;1.77;;;;;;;29.55;41.55;97092.44;4959692;28;20059;-65
2023/06/21 08:03:20;;;;;;;1.90;1.90;;;;;;;29.74;41.01;97113.00;4963746;28;20558;-62
2023/06/21 08:05:47;;;;;;;1.67;1.67;;;;;;;29.63;41.00;97115.66;4944303;29;20065;-66
2023/06/21 08:08:17;;;;;;;2.05;2.05;;;;;;;27.96;40.57;96887.91;4946096;28;20434;-67
2023/06/21 08:10:44;;;;;;;1.60;1.60;;;;;;;29.00;41.20;97087.84;4953471;28;20059;-71
2023/06/21 08:13:11;;;;;;;1.42;1.42;;;;;;;29.38;40.76;97113.44;4955031;28;20048;-71
2023/06/21 08:15:37;;;;;;;1.67;1.67;;;;;;;29.61;41.18;97112.50;4945306;28;20055;-64
2023/06/21 08:18:04;;;;;;;1.70;1.70;;;;;;;29.47;41.85;97053.38;4945755;28;20123;-70
2023/06/21 08:20:33;;;;;;;1.70;1.70;;;;;;;29.72;40.42;97055.59;4979915;28;20553;-64
2023/06/21 08:23:00;;;;;;;1.60;1.60;;;;;;;30.27;39.96;97110.69;4963779;28;20133;-67
2023/06/21 08:25:28;;;;;;;1.80;1.80;;;;;;;30.42;39.02;97111.41;4965641;28;20058;-63
2023/06/21 08:27:56;;;;;;;1.70;1.70;;;;;;;30.11;38.88;97111.22;4962930;28;20499;-62
2023/06/21 08:30:23;;;;;;;1.80;1.80;;;;;;;29.98;39.49;97116.50;4964356;28;20177;-62
2023/06/21 08:32:50;;;;;;;1.67;1.67;;;;;;;29.97;38.77;97069.19;4958625;28;20081;-65
2023/06/21 08:35:17;;;;;;;1.60;1.60;;;;;;;29.93;38.44;97008.63;4948428;28;20141;-66
2023/06/21 08:37:57;;;;;;;1.63;1.63;;;;;;;30.21;40.38;97038.38;4957121;28;20047;-69
2023/06/21 08:40:32;;;;;;;1.63;1.63;;;;;;;30.71;40.46;97108.38;4958742;28;20573;-77
2023/06/21 08:43:00;;;;;;;1.67;1.67;;;;;;;30.85;39.18;97104.69;4957013;28;20514;-65
2023/06/21 08:45:26;;;;;;;1.67;1.67;;;;;;;30.08;39.43;96989.31;4966093;28;20055;-66
2023/06/21 08:47:58;;;;;;;1.80;1.80;;;;;;;30.94;39.67;97098.78;4963755;28;20509;-69
2023/06/21 08:50:25;;;;;;;1.90;1.90;;;;;;;30.27;39.06;96967.75;4957403;28;20081;-65
2023/06/21 08:52:53;;;;;;;1.95;1.95;;;;;;;30.92;38.82;97064.16;4963900;28;20051;-61
2023/06/21 08:55:23;;;;;;;1.85;1.85;;;;;;;31.06;39.06;97107.47;4962806;28;20898;-67
2023/06/21 08:57:57;;;;;;;1.60;1.60;;;;;;;31.21;38.06;97108.13;4960210;28;20054;-64
2023/06/21 09:00:31;;;;;;;1.70;1.70;;;;;;;30.59;37.99;97086.66;4960653;28;20082;-68
2023/06/21 09:03:06;;;;;;;1.70;1.70;;;;;;;30.12;38.34;97001.34;4961463;28;20054;-64
2023/06/21 09:05:41;;;;;;;1.67;1.67;;;;;;;30.55;38.94;97097.53;4942497;28;20447;-67
2023/06/21 09:08:07;;;;;;;1.70;1.70;;;;;;;29.83;38.57;97018.63;4964251;28;20050;-62
2023/06/21 09:10:38;;;;;;;1.50;1.50;;;;;;;30.82;38.54;97099.16;4956111;28;20078;-68
2023/06/21 09:13:06;;;;;;;1.75;1.75;;;;;;;31.27;37.67;97101.16;4944138;28;20067;-63
2023/06/21 09:15:34;;;;;;;1.58;1.58;;;;;;;31.45;38.21;97088.59;4949953;28;20051;-64
2023/06/21 09:18:01;;;;;;;1.70;1.70;;;;;;;31.43;38.44;97102.63;4952573;28;20094;-63
2023/06/21 09:20:29;;;;;;;2.00;2.00;;;;;;;30.79;39.11;97055.16;4951112;28;20055;-64
2023/06/21 09:22:57;;;;;;;1.90;1.90;;;;;;;30.84;38.30;97000.06;4952080;28;20051;-65
2023/06/21 09:25:25;;;;;;;1.77;1.77;;;;;;;31.26;38.97;97012.91;4961177;28;20054;-66
2023/06/21 09:27:55;;;;;;;1.70;1.70;;;;;;;31.03;38.02;97008.31;4947446;28;20230;-63
2023/06/21 09:30:23;;;;;;;1.60;1.60;;;;;;;31.17;36.47;97085.47;4953291;28;20076;-65
2023/06/21 09:33:04;;;;;;;1.98;1.98;;;;;;;30.43;37.23;97015.75;4986859;28;20050;-67
2023/06/21 09:35:32;;;;;;;1.75;1.75;;;;;;;30.84;37.51;97051.59;4953291;28;20102;-65
2023/06/21 09:37:59;;;;;;;1.83;1.83;;;;;;;30.11;38.10;97085.50;4960514;28;20050;-64
2023/06/21 09:40:25;;;;;;;1.85;1.85;;;;;;;30.46;39.24;97089.09;4954411;28;20051;-64
2023/06/21 09:42:53;;;;;;;1.83;1.83;;;;;;;30.75;37.00;97093.84;4959414;28;20054;-66
2023/06/21 09:45:20;;;;;;;1.92;1.92;;;;;;;30.79;38.18;97083.78;4964370;28;20058;-62
2023/06/21 09:47:47;;;;;;;1.75;1.75;;;;;;;31.31;37.40;97073.13;4948791;28;20069;-68
2023/06/21 09:50:14;;;;;;;1.88;1.88;;;;;;;30.95;37.42;97086.03;4952917;28;20062;-67
2023/06/21 09:52:45;;;;;;;1.75;1.75;;;;;;;30.82;37.35;97088.53;4960042;28;20062;-64
2023/06/21 09:55:16;;;;;;;1.92;1.92;;;;;;;31.55;35.99;97085.03;4949892;28;20151;-67
2023/06/21 09:57:43;;;;;;;1.58;1.58;;;;;;;31.73;36.22;97086.72;4964038;28;20073;-64
2023/06/21 10:00:12;;;;;;;1.90;1.90;;;;;;;32.03;35.22;97036.38;4954911;28;20047;-64
2023/06/21 10:02:40;;;;;;;1.77;1.77;;;;;;;31.81;35.33;97084.97;4962707;28;20133;-66
2023/06/21 10:05:17;;;;;;;1.60;1.60;;;;;;;31.38;37.26;97084.13;4951821;28;20162;-65
2023/06/21 10:07:46;;;;;;;1.50;1.50;;;;;;;30.77;37.40;97069.22;4961111;28;20455;-65
2023/06/21 10:10:13;;;;;;;1.70;1.70;;;;;;;31.88;36.75;97076.72;4948140;28;20094;-65
2023/06/21 10:12:53;;;;;;;1.88;1.88;;;;;;;32.65;35.56;97047.63;4938866;28;20047;-66
2023/06/21 10:15:22;;;;;;;1.70;1.70;;;;;;;31.89;36.07;97011.56;4960616;28;20058;-66
2023/06/21 10:17:52;;;;;;;1.85;1.85;;;;;;;32.23;37.22;97059.19;4942401;28;20055;-67
2023/06/21 10:20:32;;;;;;;1.48;1.48;;;;;;;32.67;34.93;97075.81;4964478;28;20055;-66
2023/06/21 10:23:02;;;;;;;1.73;1.73;;;;;;;31.93;35.88;97003.53;4959877;28;20461;-67
2023/06/21 10:25:30;;;;;;;1.63;1.63;;;;;;;33.18;35.84;97073.31;4958615;28;20051;-65
2023/06/21 10:28:00;;;;;;;1.90;1.90;;;;;;;33.43;34.95;97066.56;4951222;28;20043;-64
2023/06/21 10:30:28;;;;;;;2.08;2.08;;;;;;;33.65;34.40;97072.28;4969871;28;20129;-64
2023/06/21 10:32:59;;;;;;;1.88;1.88;;;;;;;33.68;33.91;97062.66;4956917;28;20138;-64
2023/06/21 10:35:28;;;;;;;1.90;1.90;;;;;;;33.58;33.75;97072.84;4956750;28;20548;-66
2023/06/21 10:38:01;;;;;;;1.70;1.70;;;;;;;33.12;34.29;97063.91;4967849;28;20581;-68
2023/06/21 10:40:29;;;;;;;1.92;1.92;;;;;;;33.05;35.12;97067.31;4957944;28;20054;-61
2023/06/21 10:42:58;;;;;;;2.00;2.00;;;;;;;33.31;33.82;97064.19;4964638;28;20077;-63
2023/06/21 10:45:28;;;;;;;1.70;1.70;;;;;;;32.22;36.04;97023.19;4965547;28;20089;-64
2023/06/21 10:47:55;;;;;;;1.73;1.73;;;;;;;32.88;35.12;97034.91;4966236;28;20054;-63
2023/06/21 10:50:26;;;;;;;2.10;2.10;;;;;;;32.77;34.61;97026.25;4957737;28;20506;-61
2023/06/21 10:52:55;;;;;;;1.90;1.90;;;;;;;33.34;33.45;97052.44;4996959;28;20061;-62
2023/06/21 10:55:22;;;;;;;1.90;1.90;;;;;;;32.58;34.39;97007.94;4952051;28;20050;-65
2023/06/21 10:57:53;;;;;;;1.92;1.92;;;;;;;32.93;34.06;97062.09;4949046;28;20062;-65
2023/06/21 11:00:25;;;;;;;1.75;1.75;;;;;;;31.15;34.19;96715.13;4945852;28;20322;-66
2023/06/21 11:02:53;;;;;;;2.13;2.13;;;;;;;33.58;33.91;97009.63;4945733;28;20419;-67
2023/06/21 11:05:22;;;;;;;1.90;1.90;;;;;;;34.12;33.86;97058.13;4945890;28;20577;-65
2023/06/21 11:08:06;;;;;;;1.80;1.80;;;;;;;34.58;33.14;97056.16;4976887;28;20147;-66
2023/06/21 11:10:38;;;;;;;1.98;1.98;;;;;;;34.36;33.56;97066.94;4962230;28;20055;-66
2023/06/21 11:13:05;;;;;;;1.92;1.92;;;;;;;34.30;33.65;97064.09;4947895;28;20883;-65
2023/06/21 11:15:33;;;;;;;1.80;1.80;;;;;;;34.49;32.64;97047.03;4927795;28;20202;-65
2023/06/21 11:18:03;;;;;;;1.73;1.73;;;;;;;34.65;31.63;97037.53;4926230;29;20589;-65
2023/06/21 11:20:33;;;;;;;2.15;2.15;;;;;;;34.76;31.75;97058.38;4940060;29;20083;-64
2023/06/21 11:23:06;;;;;;;2.05;2.05;;;;;;;35.17;31.78;97060.53;4926915;29;20098;-66
2023/06/21 11:25:36;;;;;;;1.73;1.73;;;;;;;35.15;31.66;97055.31;4926762;29;20508;-66
2023/06/21 11:28:25;;;;;;;2.05;2.05;;;;;;;35.65;31.33;97061.47;4927119;29;20237;-66
2023/06/21 11:31:00;;;;;;;1.85;1.85;;;;;;;34.94;32.81;97057.00;4927329;29;20515;-66
2023/06/21 11:33:29;;;;;;;1.60;1.60;;;;;;;35.49;31.56;97052.97;4928196;29;20092;-66
2023/06/21 11:36:07;;;;;;;2.00;2.00;;;;;;;35.58;30.29;97053.41;4957707;28;20052;-65
2023/06/21 11:38:35;;;;;;;2.05;2.05;;;;;;;34.57;31.31;96950.19;4988211;28;20592;-67
2023/06/21 11:41:22;;;;;;;2.10;2.10;;;;;;;34.53;31.92;96979.25;4963875;28;20043;-65